Kabul, Afghanistan
Current Conditions -  °F | °C
As of 5:50 AM on Monday 22 Dec 2014 (Local Time) from OAKB Reporting Station
Overcast Overcast  
Wind Chill: 37°   Ceiling: 10000
Heat Index: 37°   Visibility: 6mi
Dew Point: 12°   Wind: 2mph
Humidity: 36%   Direction: 180°S
Pressure: 30.06"   Gusts: NA
Location:  34.53°N, 69.17°E
Report Text: OAKB 220150Z 18002KT 9999 OVC100 03/M11 Q1018 NOSIG RMK BLU BLU
Loading
Personal Weather Stations






























Interactive Weather Map New forecast layout! Learn more

10-Day Weather Forecast

Advertisements
Track Severe Weather on mobile